Kansas City, Missouri
Traffic Map
Current Weather Conditions
Kansas City, Missouri
Clear
Clear
13°
Feels Like: 13°
Wind Chill: 13° Ceiling: Unl
Heat Index: 13° Visibility: 9mi
Dew Point: Wind: 5mph
Humidity: 53% Direction: 60° (ENE)
Pressure: 30.32in Gusts: 0mph
Raw Report DataKMKC 181554Z 06004KT 9SM CLR 13/03 A3032 RMK AO2 SLP267 T01280033
Traffic Incident Summary
Active as of:
Severity:
Category:
InformationThere was an issue retrieving the traffic information for this location. Please try a different location or try again shortly.
Advertisements
At Last! Intellicast now available for iPhone and Android